createdAt,value
2022-08-07T00:02:40.416Z,15.29
2022-08-07T00:05:05.751Z,15.09
2022-08-07T00:07:40.869Z,15.02
2022-08-07T00:10:27.256Z,15.03
2022-08-07T00:13:09.661Z,15.08
2022-08-07T00:15:53.016Z,15.08
2022-08-07T00:18:27.989Z,14.99
2022-08-07T00:21:03.318Z,15.06
2022-08-07T00:23:41.867Z,15.01
2022-08-07T00:26:31.180Z,14.99
2022-08-07T00:29:01.956Z,14.84
2022-08-07T00:31:38.045Z,14.77
2022-08-07T00:34:11.137Z,14.65
2022-08-07T00:36:43.012Z,14.60
2022-08-07T00:39:16.593Z,14.56
2022-08-07T00:41:53.458Z,14.46
2022-08-07T00:44:29.794Z,14.54
2022-08-07T00:46:59.647Z,14.65
2022-08-07T00:50:17.167Z,14.65
2022-08-07T00:52:20.159Z,14.51
2022-08-07T00:54:53.722Z,14.40
2022-08-07T00:57:25.289Z,14.30
2022-08-07T00:59:55.324Z,14.28
2022-08-07T01:02:28.609Z,14.34
2022-08-07T01:05:00.076Z,14.37
2022-08-07T01:07:31.101Z,14.37
2022-08-07T01:10:06.897Z,14.18
2022-08-07T01:12:53.307Z,14.11
2022-08-07T01:16:01.320Z,14.16
2022-08-07T01:18:17.129Z,14.00
2022-08-07T01:20:59.713Z,13.95
2022-08-07T01:23:38.841Z,13.82
2022-08-07T01:26:15.822Z,13.93
2022-08-07T01:28:50.635Z,13.95
2022-08-07T01:31:41.674Z,13.93
2022-08-07T01:34:15.142Z,13.87
2022-08-07T01:36:45.659Z,13.91
2022-08-07T01:39:41.008Z,13.88
2022-08-07T01:42:57.422Z,13.81
2022-08-07T01:45:36.284Z,13.77
2022-08-07T01:48:18.253Z,13.72
2022-08-07T01:50:59.966Z,13.71
2022-08-07T01:54:12.172Z,13.67
2022-08-07T01:56:54.326Z,13.60
2022-08-07T01:59:31.561Z,13.55
2022-08-07T02:02:10.592Z,13.47
2022-08-07T02:04:56.335Z,13.40
2022-08-07T02:07:50.007Z,13.47
2022-08-07T02:10:28.067Z,13.50
2022-08-07T02:13:02.895Z,13.42
2022-08-07T02:15:44.229Z,13.43
2022-08-07T02:18:15.157Z,13.35
2022-08-07T02:20:52.057Z,13.27
2022-08-07T02:23:29.672Z,13.28
2022-08-07T02:26:31.509Z,13.36
2022-08-07T02:29:00.022Z,13.32
2022-08-07T02:31:32.739Z,13.36
2022-08-07T02:34:11.146Z,13.37
2022-08-07T02:36:47.850Z,13.31
2022-08-07T02:39:43.754Z,13.21
2022-08-07T02:42:16.370Z,13.15
2022-08-07T02:44:54.150Z,13.22
2022-08-07T02:47:27.876Z,13.07
2022-08-07T02:50:11.638Z,13.03
2022-08-07T02:52:49.009Z,12.97
2022-08-07T02:55:28.454Z,13.08
2022-08-07T02:58:21.494Z,12.96
2022-08-07T03:00:57.528Z,12.84
2022-08-07T03:03:49.930Z,12.85
2022-08-07T03:06:33.103Z,12.77
2022-08-07T03:09:07.557Z,12.87
2022-08-07T03:11:51.655Z,12.76
2022-08-07T03:14:23.886Z,12.82
2022-08-07T03:16:55.800Z,12.83
2022-08-07T03:19:29.080Z,12.74
2022-08-07T03:22:18.980Z,12.63
2022-08-07T03:24:49.813Z,12.67
2022-08-07T03:27:30.540Z,12.68
2022-08-07T03:30:03.735Z,12.60
2022-08-07T03:32:58.925Z,12.46
2022-08-07T03:35:44.045Z,12.56
2022-08-07T03:38:29.380Z,12.54
2022-08-07T03:41:02.173Z,12.49
2022-08-07T03:43:36.051Z,12.48
2022-08-07T03:46:18.300Z,12.48
2022-08-07T03:49:02.663Z,12.60
2022-08-07T03:51:47.146Z,12.46
2022-08-07T03:54:36.042Z,12.41
2022-08-07T03:58:34.862Z,12.47
2022-08-07T04:00:04.212Z,12.42
2022-08-07T04:02:49.309Z,12.46
2022-08-07T04:05:40.526Z,12.43
2022-08-07T04:08:22.086Z,12.45
2022-08-07T04:12:25.002Z,12.37
2022-08-07T04:14:10.407Z,12.36
2022-08-07T04:16:40.434Z,12.39
2022-08-07T04:19:34.123Z,12.44
2022-08-07T04:22:27.437Z,12.41
2022-08-07T04:25:01.976Z,12.41
2022-08-07T04:27:44.052Z,12.32
2022-08-07T04:30:21.500Z,12.37
2022-08-07T04:33:20.994Z,12.49
2022-08-07T04:35:54.794Z,12.41
2022-08-07T04:38:29.821Z,12.36
2022-08-07T04:41:01.689Z,12.33
2022-08-07T04:44:12.192Z,12.33
2022-08-07T04:47:23.463Z,12.34
2022-08-07T04:50:13.618Z,12.30
2022-08-07T04:53:16.617Z,12.30
2022-08-07T04:58:09.597Z,12.32
2022-08-07T05:00:10.859Z,12.35
2022-08-07T05:02:16.985Z,12.39
2022-08-07T05:05:12.018Z,12.43
2022-08-07T05:08:04.246Z,12.44
2022-08-07T05:10:43.091Z,12.47
2022-08-07T05:14:55.448Z,12.47
2022-08-07T05:16:20.262Z,12.50
2022-08-07T05:18:56.223Z,12.57
2022-08-07T05:22:00.767Z,12.60
2022-08-07T05:24:24.664Z,12.68
2022-08-07T05:27:02.989Z,12.70
2022-08-07T05:29:51.142Z,12.80
2022-08-07T05:32:26.651Z,12.83
2022-08-07T05:34:58.410Z,12.88
2022-08-07T05:37:28.529Z,12.93
2022-08-07T05:40:18.743Z,12.99
2022-08-07T05:42:55.916Z,13.04
2022-08-07T05:45:46.764Z,13.20
2022-08-07T05:48:26.500Z,13.29
2022-08-07T05:50:59.729Z,13.33
2022-08-07T05:54:13.571Z,13.44
2022-08-07T05:56:29.906Z,13.52
2022-08-07T05:59:03.539Z,13.63
2022-08-07T06:01:40.371Z,13.73
2022-08-07T06:04:11.447Z,13.86
2022-08-07T06:06:47.770Z,14.03
2022-08-07T06:10:04.400Z,14.13
2022-08-07T06:12:16.860Z,14.30
2022-08-07T06:14:51.342Z,14.44
2022-08-07T06:17:23.471Z,14.56
2022-08-07T06:20:04.744Z,14.69
2022-08-07T06:22:40.248Z,14.82
2022-08-07T06:25:23.889Z,14.95
2022-08-07T06:28:04.879Z,15.06
2022-08-07T06:30:36.003Z,15.17
2022-08-07T06:33:17.867Z,15.29
2022-08-07T06:36:13.533Z,15.41
2022-08-07T06:38:59.352Z,15.55
2022-08-07T06:42:02.567Z,15.69
2022-08-07T06:44:50.946Z,15.87
2022-08-07T06:47:21.352Z,16.02
2022-08-07T06:49:58.572Z,16.16
2022-08-07T06:52:39.094Z,16.32
2022-08-07T06:55:33.159Z,16.46
2022-08-07T06:58:13.607Z,16.59
2022-08-07T07:00:58.730Z,16.74
2022-08-07T07:03:47.978Z,16.87
2022-08-07T07:06:23.969Z,17.00
2022-08-07T07:08:56.852Z,17.12
2022-08-07T07:12:10.750Z,17.24
2022-08-07T07:14:22.055Z,17.37
2022-08-07T07:16:56.535Z,17.46
2022-08-07T07:19:57.688Z,17.54
2022-08-07T07:22:36.622Z,17.71
2022-08-07T07:26:35.115Z,17.88
2022-08-07T07:28:29.960Z,17.99
2022-08-07T07:31:13.546Z,18.12
2022-08-07T07:33:56.432Z,18.26
2022-08-07T07:36:32.266Z,18.36
2022-08-07T07:39:06.436Z,18.44
2022-08-07T07:42:02.316Z,18.59
2022-08-07T07:44:31.615Z,18.68
2022-08-07T07:47:13.994Z,18.84
2022-08-07T07:50:35.670Z,18.96
2022-08-07T07:52:47.165Z,19.05
2022-08-07T07:55:21.405Z,19.19
2022-08-07T07:57:58.151Z,19.29
2022-08-07T08:00:31.489Z,19.27
2022-08-07T08:03:09.402Z,19.37
2022-08-07T08:05:55.156Z,19.46
2022-08-07T08:08:35.448Z,19.60
2022-08-07T08:11:16.569Z,19.73
2022-08-07T08:13:54.052Z,19.81
2022-08-07T08:16:33.022Z,19.93
2022-08-07T08:19:18.230Z,20.09
2022-08-07T08:22:17.964Z,20.21
2022-08-07T08:25:24.570Z,20.33
2022-08-07T08:28:07.494Z,20.49
2022-08-07T08:30:42.872Z,20.66
2022-08-07T08:33:25.022Z,20.56
2022-08-07T08:36:00.695Z,20.61
2022-08-07T08:38:40.596Z,20.68
2022-08-07T08:41:26.379Z,20.71
2022-08-07T08:44:29.475Z,20.80
2022-08-07T08:47:11.389Z,20.74
2022-08-07T08:50:04.678Z,20.97
2022-08-07T08:52:53.597Z,21.25
2022-08-07T08:55:54.482Z,21.46
2022-08-07T08:58:36.359Z,21.57
2022-08-07T09:01:18.602Z,21.82
2022-08-07T09:04:08.537Z,21.95
2022-08-07T09:06:56.938Z,21.98
2022-08-07T09:09:56.784Z,22.11
2022-08-07T09:12:53.185Z,22.04
2022-08-07T09:16:25.381Z,22.16
2022-08-07T09:18:58.542Z,22.20
2022-08-07T09:22:10.319Z,22.45
2022-08-07T09:25:01.539Z,22.66
2022-08-07T09:28:00.807Z,22.65
2022-08-07T09:30:54.367Z,22.84
2022-08-07T09:34:00.944Z,23.16
2022-08-07T09:36:42.996Z,23.36
2022-08-07T09:39:55.124Z,23.45
2022-08-07T09:42:51.476Z,23.61
2022-08-07T09:47:24.305Z,23.95
2022-08-07T09:48:55.960Z,24.36
2022-08-07T09:52:10.906Z,24.56
2022-08-07T09:54:48.073Z,24.67
2022-08-07T09:57:51.349Z,24.91
2022-08-07T10:00:31.852Z,24.95
2022-08-07T10:04:06.152Z,25.12
2022-08-07T10:06:59.788Z,25.28
2022-08-07T10:10:03.870Z,25.34
2022-08-07T10:13:15.944Z,25.51
2022-08-07T10:16:23.211Z,25.68
2022-08-07T10:19:45.499Z,25.64
2022-08-07T10:22:39.494Z,25.32
2022-08-07T10:25:42.970Z,25.01
2022-08-07T10:28:32.179Z,25.29
2022-08-07T10:31:39.458Z,25.60
2022-08-07T10:34:37.796Z,25.44
2022-08-07T10:38:00.316Z,25.23
2022-08-07T10:40:35.916Z,25.22
2022-08-07T10:43:19.323Z,25.27
2022-08-07T10:46:02.865Z,25.62
2022-08-07T10:48:48.661Z,25.60
2022-08-07T10:51:57.525Z,25.68
2022-08-07T10:54:38.397Z,25.83
2022-08-07T10:57:34.747Z,25.89
2022-08-07T11:00:39.330Z,25.94
2022-08-07T11:03:12.882Z,25.99
2022-08-07T11:05:54.813Z,25.99
2022-08-07T11:08:41.235Z,25.90
2022-08-07T11:11:20.278Z,25.71
2022-08-07T11:14:45.668Z,25.92
2022-08-07T11:16:59.413Z,26.30
2022-08-07T11:19:52.191Z,26.69
2022-08-07T11:22:44.124Z,26.93
2022-08-07T11:25:26.926Z,27.20
2022-08-07T11:28:15.566Z,27.37
2022-08-07T11:30:58.519Z,27.59
2022-08-07T11:33:58.399Z,27.90
2022-08-07T11:36:56.453Z,27.72
2022-08-07T11:39:59.843Z,27.76
2022-08-07T11:42:48.806Z,27.72
2022-08-07T11:45:35.303Z,27.88
2022-08-07T11:49:04.139Z,28.32
2022-08-07T11:52:00.356Z,27.94
2022-08-07T11:55:01.263Z,28.09
2022-08-07T11:57:57.717Z,27.90
2022-08-07T12:01:00.145Z,28.26
2022-08-07T12:04:03.965Z,28.57
2022-08-07T12:07:00.342Z,28.84
2022-08-07T12:09:38.016Z,28.51
2022-08-07T12:12:12.191Z,28.67
2022-08-07T12:14:55.701Z,28.93
2022-08-07T12:17:41.362Z,28.84
2022-08-07T12:20:36.643Z,28.77
2022-08-07T12:24:07.483Z,28.46
2022-08-07T12:26:49.093Z,28.62
2022-08-07T12:29:38.951Z,28.80
2022-08-07T12:32:24.579Z,28.93
2022-08-07T12:34:56.060Z,28.90
2022-08-07T12:38:09.623Z,28.91
2022-08-07T12:40:46.818Z,28.87
2022-08-07T12:44:01.890Z,28.87
2022-08-07T12:46:32.819Z,28.87
2022-08-07T12:49:25.462Z,28.55
2022-08-07T12:52:19.253Z,28.47
2022-08-07T12:55:05.293Z,28.58
2022-08-07T12:58:01.464Z,28.96
2022-08-07T13:00:50.907Z,29.22
2022-08-07T13:04:05.034Z,29.42
2022-08-07T13:07:02.248Z,29.38
2022-08-07T13:10:20.904Z,29.58
2022-08-07T13:13:47.595Z,29.39
2022-08-07T13:16:18.714Z,29.28
2022-08-07T13:19:02.931Z,29.48
2022-08-07T13:21:57.294Z,29.48
2022-08-07T13:24:43.840Z,29.39
2022-08-07T13:28:05.767Z,29.94
2022-08-07T13:30:40.981Z,30.49
2022-08-07T13:34:30.240Z,31.06
2022-08-07T13:36:27.465Z,31.38
2022-08-07T13:39:12.782Z,32.17
2022-08-07T13:41:54.684Z,32.65
2022-08-07T13:44:34.608Z,32.91
2022-08-07T13:47:21.720Z,33.31
2022-08-07T13:50:32.720Z,33.45
2022-08-07T13:52:51.764Z,33.62
2022-08-07T13:55:26.675Z,33.88
2022-08-07T13:58:31.783Z,34.25
2022-08-07T14:01:11.148Z,34.56
2022-08-07T14:04:07.419Z,35.27
2022-08-07T14:06:43.855Z,35.90
2022-08-07T14:10:02.333Z,35.82
2022-08-07T14:12:30.841Z,36.46
2022-08-07T14:15:08.947Z,35.83
2022-08-07T14:18:24.284Z,36.59
2022-08-07T14:20:49.214Z,36.91
2022-08-07T14:23:59.551Z,37.32
2022-08-07T14:26:30.395Z,37.55
2022-08-07T14:30:07.940Z,37.78
2022-08-07T14:32:12.277Z,38.39
2022-08-07T14:34:47.257Z,38.67
2022-08-07T14:37:23.705Z,38.66
2022-08-07T14:40:16.664Z,38.25
2022-08-07T14:46:01.855Z,38.77
2022-08-07T14:48:37.163Z,38.81
2022-08-07T14:54:31.074Z,39.12
2022-08-07T14:56:59.445Z,39.37
2022-08-07T15:00:05.154Z,37.98
2022-08-07T15:05:25.821Z,35.68
2022-08-07T15:07:58.492Z,34.91
2022-08-07T15:10:30.614Z,34.06
2022-08-07T15:16:02.875Z,32.67
2022-08-07T15:21:58.944Z,31.11
2022-08-07T15:25:15.069Z,30.61
2022-08-07T15:27:29.082Z,30.48
2022-08-07T15:30:16.714Z,30.18
2022-08-07T15:33:01.648Z,29.98
2022-08-07T15:36:00.414Z,29.62
2022-08-07T15:38:51.866Z,29.58
2022-08-07T15:44:20.778Z,29.25
2022-08-07T15:47:03.606Z,29.20
2022-08-07T15:50:05.449Z,29.25
2022-08-07T15:52:34.323Z,29.07
2022-08-07T15:55:12.416Z,28.95
2022-08-07T15:57:49.073Z,28.96
2022-08-07T16:00:31.213Z,28.55
2022-08-07T16:03:20.503Z,28.41
2022-08-07T16:05:53.841Z,28.21
2022-08-07T16:08:37.898Z,27.90
2022-08-07T16:11:26.902Z,27.80
2022-08-07T16:14:17.139Z,27.81
2022-08-07T16:17:16.263Z,27.64
2022-08-07T16:20:34.630Z,27.53
2022-08-07T16:23:55.119Z,27.56
2022-08-07T16:26:59.385Z,27.48
2022-08-07T16:30:31.459Z,27.43
2022-08-07T16:34:02.931Z,27.26
2022-08-07T16:36:31.447Z,27.21
2022-08-07T16:39:33.655Z,27.18
2022-08-07T16:42:36.506Z,27.15
2022-08-07T16:46:40.692Z,26.99
2022-08-07T16:50:27.752Z,27.02
2022-08-07T16:52:52.348Z,26.87
2022-08-07T16:55:47.198Z,26.79
2022-08-07T16:59:02.437Z,26.68
2022-08-07T17:01:41.196Z,26.68
2022-08-07T17:04:25.871Z,26.69
2022-08-07T17:07:10.004Z,26.56
2022-08-07T17:10:05.295Z,26.55
2022-08-07T17:12:53.214Z,26.44
2022-08-07T17:15:44.437Z,26.38
2022-08-07T17:18:33.292Z,26.39
2022-08-07T17:21:18.896Z,26.38
2022-08-07T17:24:05.442Z,26.36
2022-08-07T17:26:53.298Z,26.31
2022-08-07T17:30:14.722Z,26.16
2022-08-07T17:32:57.516Z,26.17
2022-08-07T17:35:54.669Z,26.11
2022-08-07T17:38:35.198Z,25.92
2022-08-07T17:42:01.788Z,25.91
2022-08-07T17:44:41.398Z,25.74
2022-08-07T17:47:38.165Z,25.72
2022-08-07T17:50:42.293Z,25.60
2022-08-07T17:54:00.486Z,25.49
2022-08-07T17:56:42.136Z,25.31
2022-08-07T17:59:35.800Z,25.22
2022-08-07T18:02:16.668Z,25.23
2022-08-07T18:05:20.922Z,25.10
2022-08-07T18:08:16.363Z,24.99
2022-08-07T18:12:18.164Z,24.88
2022-08-07T18:14:02.527Z,24.69
2022-08-07T18:16:36.002Z,24.61
2022-08-07T18:21:11.032Z,24.52
2022-08-07T18:22:40.362Z,24.46
2022-08-07T18:25:40.410Z,24.20
2022-08-07T18:28:35.199Z,24.03
2022-08-07T18:31:18.774Z,24.02
2022-08-07T18:34:35.851Z,23.93
2022-08-07T18:38:59.368Z,23.65
2022-08-07T18:40:42.278Z,23.64
2022-08-07T18:43:48.907Z,23.42
2022-08-07T18:46:33.440Z,23.23
2022-08-07T18:50:31.693Z,23.11
2022-08-07T18:52:53.115Z,22.98
2022-08-07T18:55:42.021Z,22.87
2022-08-07T18:59:04.851Z,22.71
2022-08-07T19:02:31.968Z,22.56
2022-08-07T19:04:57.436Z,22.49
2022-08-07T19:07:51.888Z,22.32
2022-08-07T19:10:51.618Z,22.23
2022-08-07T19:13:37.218Z,22.14
2022-08-07T19:17:01.245Z,21.99
2022-08-07T19:19:33.826Z,21.87
2022-08-07T19:22:16.312Z,21.81
2022-08-07T19:24:48.643Z,21.78
2022-08-07T19:28:58.267Z,21.65
2022-08-07T19:31:00.549Z,21.49
2022-08-07T19:33:15.118Z,21.41
2022-08-07T19:35:53.458Z,21.37
2022-08-07T19:38:27.999Z,21.33
2022-08-07T19:41:01.842Z,21.20
2022-08-07T19:43:49.290Z,21.08
2022-08-07T19:46:30.636Z,20.98
2022-08-07T19:49:07.211Z,20.87
2022-08-07T19:51:52.611Z,20.74
2022-08-07T19:54:35.001Z,20.73
2022-08-07T19:58:00.142Z,20.70
2022-08-07T20:00:28.201Z,20.56
2022-08-07T20:03:05.048Z,20.62
2022-08-07T20:06:02.178Z,20.46
2022-08-07T20:08:35.015Z,20.29
2022-08-07T20:11:10.734Z,20.23
2022-08-07T20:13:48.445Z,20.15
2022-08-07T20:16:35.231Z,20.12
2022-08-07T20:19:10.358Z,20.04
2022-08-07T20:21:47.755Z,19.94
2022-08-07T20:24:23.496Z,19.83
2022-08-07T20:26:56.205Z,19.81
2022-08-07T20:29:49.574Z,19.75
2022-08-07T20:32:25.792Z,19.69
2022-08-07T20:35:01.382Z,19.54
2022-08-07T20:37:55.616Z,19.48
2022-08-07T20:40:34.310Z,19.40
2022-08-07T20:43:09.892Z,19.42
2022-08-07T20:46:28.340Z,19.38
2022-08-07T20:49:55.115Z,19.22
2022-08-07T20:51:40.565Z,19.14
2022-08-07T20:54:29.999Z,19.18
2022-08-07T20:57:08.345Z,19.09
2022-08-07T21:00:06.736Z,19.00
2022-08-07T21:02:57.534Z,18.89
2022-08-07T21:05:51.104Z,18.89
2022-08-07T21:08:36.786Z,18.79
2022-08-07T21:11:14.390Z,18.76
2022-08-07T21:14:31.731Z,18.79
2022-08-07T21:18:02.032Z,18.59
2022-08-07T21:20:05.263Z,18.47
2022-08-07T21:22:45.102Z,18.38
2022-08-07T21:25:38.889Z,18.45
2022-08-07T21:28:16.699Z,18.36
2022-08-07T21:30:58.055Z,18.31
2022-08-07T21:33:41.053Z,18.26
2022-08-07T21:36:31.068Z,18.16
2022-08-07T21:39:47.459Z,18.10
2022-08-07T21:42:42.651Z,18.04
2022-08-07T21:46:07.693Z,18.07
2022-08-07T21:48:28.301Z,17.98
2022-08-07T21:51:20.433Z,17.82
2022-08-07T21:54:09.393Z,17.75
2022-08-07T21:56:53.747Z,17.79
2022-08-07T22:00:05.186Z,17.79
2022-08-07T22:02:45.721Z,17.68
2022-08-07T22:05:44.658Z,17.70
2022-08-07T22:08:13.556Z,17.63
2022-08-07T22:10:49.745Z,17.59
2022-08-07T22:13:24.359Z,17.56
2022-08-07T22:16:43.355Z,17.49
2022-08-07T22:19:16.145Z,17.39
2022-08-07T22:22:04.748Z,17.32
2022-08-07T22:25:07.545Z,17.30
2022-08-07T22:28:08.054Z,17.27
2022-08-07T22:30:53.503Z,17.19
2022-08-07T22:33:53.073Z,17.31
2022-08-07T22:36:38.425Z,17.09
2022-08-07T22:39:23.468Z,17.03
2022-08-07T22:42:19.043Z,17.13
2022-08-07T22:45:03.486Z,17.09
2022-08-07T22:48:31.502Z,17.14
2022-08-07T22:51:44.583Z,17.07
2022-08-07T22:54:52.268Z,16.88
2022-08-07T22:58:05.812Z,16.82
2022-08-07T23:00:47.212Z,16.97
2022-08-07T23:03:58.802Z,16.80
2022-08-07T23:07:40.470Z,16.65
2022-08-07T23:10:37.405Z,16.57
2022-08-07T23:14:15.297Z,16.69
2022-08-07T23:17:15.617Z,16.48
2022-08-07T23:20:40.245Z,16.35
2022-08-07T23:24:16.971Z,16.40
2022-08-07T23:27:17.866Z,16.29
2022-08-07T23:30:38.008Z,16.36
2022-08-07T23:34:34.748Z,16.27
2022-08-07T23:36:43.105Z,16.20
2022-08-07T23:39:22.397Z,16.19
2022-08-07T23:42:15.668Z,16.07
2022-08-07T23:45:33.157Z,16.05
2022-08-07T23:48:43.398Z,16.11
2022-08-07T23:52:58.322Z,16.11
2022-08-07T23:54:36.005Z,16.01
2022-08-07T23:57:18.617Z,15.95
